createdAt,value
2023-05-04T00:00:19.805Z,9.39
2023-05-04T00:01:19.646Z,9.32
2023-05-04T00:02:19.809Z,9.26
2023-05-04T00:03:19.699Z,9.23
2023-05-04T00:04:19.851Z,9.23
2023-05-04T00:05:19.574Z,9.22
2023-05-04T00:06:19.712Z,9.23
2023-05-04T00:07:19.941Z,9.23
2023-05-04T00:08:19.654Z,9.22
2023-05-04T00:09:19.528Z,9.20
2023-05-04T00:10:20.643Z,9.21
2023-05-04T00:11:19.494Z,9.22
2023-05-04T00:12:19.825Z,9.20
2023-05-04T00:13:19.466Z,9.19
2023-05-04T00:14:19.501Z,9.20
2023-05-04T00:15:19.543Z,9.21
2023-05-04T00:16:19.623Z,9.21
2023-05-04T00:17:19.457Z,9.18
2023-05-04T00:18:19.462Z,9.15
2023-05-04T00:19:19.708Z,9.14
2023-05-04T00:20:19.466Z,9.08
2023-05-04T00:21:19.359Z,9.02
2023-05-04T00:22:19.472Z,9.00
2023-05-04T00:23:19.456Z,8.96
2023-05-04T00:24:20.439Z,8.93
2023-05-04T00:25:19.385Z,8.90
2023-05-04T00:26:19.412Z,8.87
2023-05-04T00:27:19.285Z,8.80
2023-05-04T00:28:19.279Z,8.76
2023-05-04T00:29:19.242Z,8.70
2023-05-04T00:30:19.469Z,8.65
2023-05-04T00:31:19.306Z,8.61
2023-05-04T00:32:19.313Z,8.60
2023-05-04T00:33:19.191Z,8.61
2023-05-04T00:34:19.222Z,8.65
2023-05-04T00:35:19.191Z,8.68
2023-05-04T00:36:19.188Z,8.72
2023-05-04T00:37:19.210Z,8.74
2023-05-04T00:38:20.176Z,8.73
2023-05-04T00:39:19.145Z,8.74
2023-05-04T00:40:19.170Z,8.76
2023-05-04T00:41:19.107Z,8.76
2023-05-04T00:42:19.141Z,8.76
2023-05-04T00:43:19.062Z,8.78
2023-05-04T00:44:19.115Z,8.77
2023-05-04T00:45:19.037Z,8.72
2023-05-04T00:46:19.115Z,8.66
2023-05-04T00:47:19.058Z,8.61
2023-05-04T00:48:19.074Z,8.55
2023-05-04T00:49:18.983Z,8.50
2023-05-04T00:50:19.039Z,8.44
2023-05-04T00:51:19.002Z,8.39
2023-05-04T00:52:19.055Z,8.36
2023-05-04T00:53:18.956Z,8.33
2023-05-04T00:54:19.056Z,8.32
2023-05-04T00:55:18.907Z,8.32
2023-05-04T00:56:18.984Z,8.29
2023-05-04T00:57:18.879Z,8.26
2023-05-04T00:58:18.887Z,8.24
2023-05-04T00:59:18.842Z,8.19
2023-05-04T01:00:18.955Z,8.13
2023-05-04T01:01:18.843Z,8.08
2023-05-04T01:02:18.911Z,8.05
2023-05-04T01:03:19.085Z,8.01
2023-05-04T01:04:18.834Z,8.02
2023-05-04T01:05:18.769Z,7.99
2023-05-04T01:06:19.829Z,7.97
2023-05-04T01:07:18.827Z,7.95
2023-05-04T01:08:18.757Z,7.92
2023-05-04T01:09:18.711Z,7.92
2023-05-04T01:10:19.789Z,7.91
2023-05-04T01:11:18.699Z,7.89
2023-05-04T01:12:18.742Z,7.89
2023-05-04T01:13:18.705Z,7.88
2023-05-04T01:14:18.697Z,7.86
2023-05-04T01:15:18.659Z,7.85
2023-05-04T01:16:18.726Z,7.85
2023-05-04T01:17:18.623Z,7.87
2023-05-04T01:18:18.680Z,7.85
2023-05-04T01:19:18.597Z,7.85
2023-05-04T01:20:19.693Z,7.83
2023-05-04T01:21:18.569Z,7.80
2023-05-04T01:22:18.655Z,7.77
2023-05-04T01:23:18.543Z,7.73
2023-05-04T01:24:18.697Z,7.70
2023-05-04T01:25:18.520Z,7.71
2023-05-04T01:26:18.588Z,7.71
2023-05-04T01:27:18.504Z,7.68
2023-05-04T01:28:18.487Z,7.66
2023-05-04T01:29:18.451Z,7.64
2023-05-04T01:30:18.570Z,7.62
2023-05-04T01:31:18.495Z,7.61
2023-05-04T01:32:18.548Z,7.59
2023-05-04T01:33:18.409Z,7.57
2023-05-04T01:34:18.436Z,7.55
2023-05-04T01:35:18.368Z,7.53
2023-05-04T01:36:18.406Z,7.55
2023-05-04T01:37:18.355Z,7.58
2023-05-04T01:38:18.357Z,7.59
2023-05-04T01:39:18.328Z,7.60
2023-05-04T01:40:18.426Z,7.59
2023-05-04T01:41:18.271Z,7.57
2023-05-04T01:42:18.346Z,7.55
2023-05-04T01:43:18.255Z,7.51
2023-05-04T01:44:18.301Z,7.48
2023-05-04T01:45:18.358Z,7.47
2023-05-04T01:46:18.360Z,7.43
2023-05-04T01:47:18.218Z,7.41
2023-05-04T01:48:18.301Z,7.39
2023-05-04T01:49:18.173Z,7.35
2023-05-04T01:50:18.230Z,7.28
2023-05-04T01:51:18.159Z,7.21
2023-05-04T01:52:18.160Z,7.15
2023-05-04T01:53:18.124Z,7.12
2023-05-04T01:54:18.237Z,7.15
2023-05-04T01:55:18.096Z,7.19
2023-05-04T01:56:18.194Z,7.22
2023-05-04T01:57:18.063Z,7.24
2023-05-04T01:58:18.108Z,7.24
2023-05-04T01:59:18.042Z,7.25
2023-05-04T02:00:18.164Z,7.24
2023-05-04T02:01:18.065Z,7.24
2023-05-04T02:02:18.015Z,7.23
2023-05-04T02:03:18.116Z,7.23
2023-05-04T02:04:18.034Z,7.24
2023-05-04T02:05:17.956Z,7.25
2023-05-04T02:06:17.987Z,7.28
2023-05-04T02:07:17.934Z,7.30
2023-05-04T02:08:17.964Z,7.32
2023-05-04T02:09:17.898Z,7.32
2023-05-04T02:10:18.001Z,7.32
2023-05-04T02:11:17.880Z,7.32
2023-05-04T02:12:17.934Z,7.37
2023-05-04T02:13:17.993Z,7.38
2023-05-04T02:14:17.900Z,7.39
2023-05-04T02:15:17.868Z,7.41
2023-05-04T02:16:18.025Z,7.42
2023-05-04T02:17:17.802Z,7.48
2023-05-04T02:18:17.883Z,7.54
2023-05-04T02:19:17.772Z,7.60
2023-05-04T02:20:17.853Z,7.67
2023-05-04T02:21:17.777Z,7.75
2023-05-04T02:22:17.754Z,7.81
2023-05-04T02:23:17.729Z,7.88
2023-05-04T02:24:17.832Z,7.94
2023-05-04T02:25:17.694Z,7.98
2023-05-04T02:26:17.797Z,8.04
2023-05-04T02:27:17.667Z,8.11
2023-05-04T02:28:17.687Z,8.15
2023-05-04T02:29:17.648Z,8.16
2023-05-04T02:30:17.766Z,8.18
2023-05-04T02:31:17.687Z,8.18
2023-05-04T02:32:17.620Z,8.22
2023-05-04T02:33:17.591Z,8.25
2023-05-04T02:34:17.634Z,8.24
2023-05-04T02:35:17.562Z,8.21
2023-05-04T02:36:17.615Z,8.14
2023-05-04T02:37:17.545Z,8.10
2023-05-04T02:38:17.572Z,8.08
2023-05-04T02:39:17.511Z,8.05
2023-05-04T02:40:17.588Z,8.03
2023-05-04T02:41:17.480Z,7.99
2023-05-04T02:42:17.551Z,7.99
2023-05-04T02:43:17.459Z,8.01
2023-05-04T02:44:17.557Z,8.02
2023-05-04T02:45:17.431Z,8.02
2023-05-04T02:46:17.625Z,8.03
2023-05-04T02:47:17.391Z,8.03
2023-05-04T02:48:17.507Z,8.02
2023-05-04T02:49:17.364Z,8.02
2023-05-04T02:50:17.461Z,8.03
2023-05-04T02:51:17.342Z,8.04
2023-05-04T02:52:17.359Z,8.06
2023-05-04T02:53:17.341Z,8.07
2023-05-04T02:54:17.489Z,8.09
2023-05-04T02:55:17.280Z,8.11
2023-05-04T02:56:17.383Z,8.13
2023-05-04T02:57:17.254Z,8.13
2023-05-04T02:58:17.300Z,8.11
2023-05-04T02:59:17.227Z,8.10
2023-05-04T03:00:17.279Z,8.09
2023-05-04T03:01:17.251Z,8.07
2023-05-04T03:02:17.228Z,8.06
2023-05-04T03:03:17.185Z,8.04
2023-05-04T03:04:17.244Z,8.02
2023-05-04T03:05:17.153Z,8.00
2023-05-04T03:06:17.208Z,8.00
2023-05-04T03:07:17.128Z,8.02
2023-05-04T03:08:17.163Z,8.01
2023-05-04T03:09:17.102Z,8.02
2023-05-04T03:10:17.175Z,8.03
2023-05-04T03:11:17.099Z,8.03
2023-05-04T03:12:17.142Z,8.02
2023-05-04T03:13:17.253Z,7.98
2023-05-04T03:14:17.102Z,7.95
2023-05-04T03:15:17.019Z,7.92
2023-05-04T03:16:17.076Z,7.91
2023-05-04T03:17:17.060Z,7.89
2023-05-04T03:18:17.098Z,7.87
2023-05-04T03:19:16.961Z,7.87
2023-05-04T03:20:17.070Z,7.87
2023-05-04T03:21:16.939Z,7.85
2023-05-04T03:22:17.008Z,7.83
2023-05-04T03:23:16.917Z,7.80
2023-05-04T03:24:20.288Z,7.78
2023-05-04T03:25:16.886Z,7.77
2023-05-04T03:26:16.970Z,7.78
2023-05-04T03:27:16.926Z,7.78
2023-05-04T03:28:17.010Z,7.78
2023-05-04T03:29:16.884Z,7.80
2023-05-04T03:30:16.902Z,7.80
2023-05-04T03:31:16.836Z,7.80
2023-05-04T03:32:16.921Z,7.80
2023-05-04T03:33:16.776Z,7.78
2023-05-04T03:34:16.918Z,7.74
2023-05-04T03:35:24.071Z,7.68
2023-05-04T03:36:17.748Z,7.64
2023-05-04T03:37:16.812Z,7.63
2023-05-04T03:38:16.723Z,7.64
2023-05-04T03:39:16.850Z,7.64
2023-05-04T03:40:16.695Z,7.66
2023-05-04T03:41:16.786Z,7.66
2023-05-04T03:42:16.689Z,7.65
2023-05-04T03:43:16.737Z,7.66
2023-05-04T03:44:16.624Z,7.66
2023-05-04T03:45:16.756Z,7.66
2023-05-04T03:46:16.750Z,7.66
2023-05-04T03:47:16.711Z,7.67
2023-05-04T03:48:16.594Z,7.68
2023-05-04T03:49:16.654Z,7.71
2023-05-04T03:50:16.549Z,7.73
2023-05-04T03:51:16.570Z,7.74
2023-05-04T03:52:16.513Z,7.75
2023-05-04T03:53:16.571Z,7.77
2023-05-04T03:54:16.530Z,7.80
2023-05-04T03:55:16.587Z,7.82
2023-05-04T03:56:16.461Z,7.83
2023-05-04T03:57:16.505Z,7.83
2023-05-04T03:58:16.428Z,7.84
2023-05-04T03:59:16.508Z,7.83
2023-05-04T04:00:16.483Z,7.82
2023-05-04T04:01:16.438Z,7.79
2023-05-04T04:02:16.424Z,7.76
2023-05-04T04:03:16.626Z,7.73
2023-05-04T04:04:16.446Z,7.69
2023-05-04T04:05:16.465Z,7.67
2023-05-04T04:06:16.360Z,7.67
2023-05-04T04:07:16.368Z,7.68
2023-05-04T04:08:16.301Z,7.69
2023-05-04T04:09:16.380Z,7.69
2023-05-04T04:10:16.295Z,7.68
2023-05-04T04:11:16.289Z,7.68
2023-05-04T04:12:16.276Z,7.68
2023-05-04T04:13:16.370Z,7.70
2023-05-04T04:14:16.234Z,7.72
2023-05-04T04:15:16.436Z,7.74
2023-05-04T04:16:16.370Z,7.79
2023-05-04T04:17:16.248Z,7.84
2023-05-04T04:18:16.210Z,7.88
2023-05-04T04:19:16.462Z,7.92
2023-05-04T04:20:16.143Z,7.92
2023-05-04T04:21:17.194Z,7.92
2023-05-04T04:22:16.111Z,7.91
2023-05-04T04:23:16.189Z,7.91
2023-05-04T04:24:16.104Z,7.92
2023-05-04T04:25:16.289Z,7.93
2023-05-04T04:26:16.067Z,7.95
2023-05-04T04:27:16.107Z,7.97
2023-05-04T04:28:16.057Z,7.99
2023-05-04T04:29:16.115Z,8.01
2023-05-04T04:30:16.048Z,8.03
2023-05-04T04:31:16.056Z,8.04
2023-05-04T04:32:15.989Z,8.04
2023-05-04T04:33:16.037Z,8.04
2023-05-04T04:34:15.956Z,8.05
2023-05-04T04:35:37.248Z,8.06
2023-05-04T04:36:15.941Z,8.07
2023-05-04T04:37:16.073Z,8.08
2023-05-04T04:38:15.913Z,8.09
2023-05-04T04:39:17.098Z,8.12
2023-05-04T04:40:16.282Z,8.13
2023-05-04T04:41:15.965Z,8.12
2023-05-04T04:42:15.852Z,8.12
2023-05-04T04:43:15.955Z,8.17
2023-05-04T04:44:15.826Z,8.19
2023-05-04T04:45:15.917Z,8.23
2023-05-04T04:46:15.908Z,8.28
2023-05-04T04:47:17.156Z,8.32
2023-05-04T04:48:15.799Z,8.35
2023-05-04T04:49:15.953Z,8.36
2023-05-04T04:50:15.744Z,8.37
2023-05-04T04:51:15.793Z,8.38
2023-05-04T04:52:15.834Z,8.38
2023-05-04T04:53:15.860Z,8.39
2023-05-04T04:54:15.707Z,8.41
2023-05-04T04:55:15.708Z,8.44
2023-05-04T04:56:15.671Z,8.49
2023-05-04T04:57:15.724Z,8.54
2023-05-04T04:58:15.642Z,8.56
2023-05-04T04:59:15.671Z,8.59
2023-05-04T05:00:15.607Z,8.62
2023-05-04T05:01:16.742Z,8.67
2023-05-04T05:02:15.583Z,8.71
2023-05-04T05:03:15.657Z,8.75
2023-05-04T05:04:15.590Z,8.77
2023-05-04T05:05:15.691Z,8.81
2023-05-04T05:06:15.626Z,8.84
2023-05-04T05:07:15.589Z,8.88
2023-05-04T05:08:15.506Z,8.93
2023-05-04T05:09:15.589Z,8.97
2023-05-04T05:10:15.482Z,9.00
2023-05-04T05:11:15.562Z,9.01
2023-05-04T05:12:15.473Z,9.02
2023-05-04T05:13:15.655Z,9.03
2023-05-04T05:14:15.544Z,9.05
2023-05-04T05:15:15.442Z,9.06
2023-05-04T05:16:15.432Z,9.07
2023-05-04T05:17:15.503Z,9.09
2023-05-04T05:18:15.369Z,9.13
2023-05-04T05:19:15.456Z,9.18
2023-05-04T05:20:15.420Z,9.23
2023-05-04T05:21:15.362Z,9.27
2023-05-04T05:22:15.327Z,9.33
2023-05-04T05:23:15.346Z,9.38
2023-05-04T05:24:15.307Z,9.44
2023-05-04T05:25:15.310Z,9.50
2023-05-04T05:26:15.283Z,9.54
2023-05-04T05:27:15.316Z,9.58
2023-05-04T05:28:15.245Z,9.64
2023-05-04T05:29:15.297Z,9.68
2023-05-04T05:30:15.232Z,9.71
2023-05-04T05:31:15.428Z,9.73
2023-05-04T05:32:15.186Z,9.72
2023-05-04T05:33:15.319Z,9.74
2023-05-04T05:34:15.164Z,9.75
2023-05-04T05:35:15.240Z,9.77
2023-05-04T05:36:15.151Z,9.80
2023-05-04T05:37:15.193Z,9.84
2023-05-04T05:38:15.111Z,9.86
2023-05-04T05:39:15.199Z,9.89
2023-05-04T05:40:15.077Z,9.92
2023-05-04T05:41:15.180Z,9.95
2023-05-04T05:42:15.056Z,9.97
2023-05-04T05:43:15.136Z,9.99
2023-05-04T05:44:15.148Z,10.02
2023-05-04T05:45:15.043Z,10.04
2023-05-04T05:46:15.031Z,10.05
2023-05-04T05:47:15.108Z,10.02
2023-05-04T05:48:14.976Z,10.02
2023-05-04T05:49:15.060Z,10.04
2023-05-04T05:50:14.956Z,10.07
2023-05-04T05:51:14.999Z,10.10
2023-05-04T05:52:14.933Z,10.13
2023-05-04T05:53:15.068Z,10.17
2023-05-04T05:54:14.992Z,10.20
2023-05-04T05:55:15.016Z,10.23
2023-05-04T05:56:14.888Z,10.24
2023-05-04T05:57:15.022Z,10.28
2023-05-04T05:58:14.862Z,10.31
2023-05-04T05:59:15.146Z,10.32
2023-05-04T06:00:15.042Z,10.35
2023-05-04T06:01:14.842Z,10.37
2023-05-04T06:02:14.995Z,10.35
2023-05-04T06:03:14.993Z,10.34
2023-05-04T06:04:14.894Z,10.36
2023-05-04T06:05:14.832Z,10.39
2023-05-04T06:06:14.726Z,10.42
2023-05-04T06:07:14.792Z,10.46
2023-05-04T06:08:14.704Z,10.47
2023-05-04T06:09:14.803Z,10.48
2023-05-04T06:10:14.682Z,10.47
2023-05-04T06:11:14.765Z,10.46
2023-05-04T06:12:14.642Z,10.48
2023-05-04T06:13:14.825Z,10.51
2023-05-04T06:14:14.617Z,10.56
2023-05-04T06:15:14.633Z,10.60
2023-05-04T06:16:14.647Z,10.63
2023-05-04T06:17:14.713Z,10.62
2023-05-04T06:18:14.565Z,10.65
2023-05-04T06:19:14.675Z,10.68
2023-05-04T06:20:14.541Z,10.73
2023-05-04T06:21:14.593Z,10.79
2023-05-04T06:22:14.524Z,10.81
2023-05-04T06:23:14.562Z,10.82
2023-05-04T06:24:14.476Z,10.83
2023-05-04T06:25:14.531Z,10.85
2023-05-04T06:26:14.456Z,10.88
2023-05-04T06:27:14.522Z,10.92
2023-05-04T06:28:14.429Z,10.93
2023-05-04T06:29:14.493Z,10.93
2023-05-04T06:30:14.409Z,10.94
2023-05-04T06:31:14.485Z,10.95
2023-05-04T06:32:14.473Z,10.97
2023-05-04T06:33:14.479Z,11.03
2023-05-04T06:34:14.348Z,11.09
2023-05-04T06:35:14.428Z,11.16
2023-05-04T06:36:14.298Z,11.19
2023-05-04T06:37:16.159Z,11.20
2023-05-04T06:38:14.337Z,11.22
2023-05-04T06:39:14.292Z,11.23
2023-05-04T06:40:14.360Z,11.25
2023-05-04T06:41:14.356Z,11.27
2023-05-04T06:42:14.229Z,11.29
2023-05-04T06:43:14.337Z,11.33
2023-05-04T06:44:14.200Z,11.41
2023-05-04T06:45:14.248Z,11.47
2023-05-04T06:46:14.199Z,11.52
2023-05-04T06:47:14.212Z,11.55
2023-05-04T06:48:14.172Z,11.60
2023-05-04T06:49:16.292Z,11.65
2023-05-04T06:50:14.147Z,11.70
2023-05-04T06:51:14.183Z,11.71
2023-05-04T06:52:14.091Z,11.71
2023-05-04T06:53:14.167Z,11.70
2023-05-04T06:54:14.073Z,11.71
2023-05-04T06:55:14.145Z,11.73
2023-05-04T06:56:14.046Z,11.75
2023-05-04T06:57:14.127Z,11.77
2023-05-04T06:58:14.066Z,11.81
2023-05-04T06:59:14.115Z,11.86
2023-05-04T07:00:13.981Z,11.91
2023-05-04T07:01:14.891Z,11.94
2023-05-04T07:02:13.973Z,11.96
2023-05-04T07:03:14.013Z,11.98
2023-05-04T07:04:13.971Z,12.01
2023-05-04T07:05:14.043Z,12.03
2023-05-04T07:06:13.912Z,12.07
2023-05-04T07:07:14.024Z,12.09
2023-05-04T07:08:14.060Z,12.12
2023-05-04T07:09:13.922Z,12.16
2023-05-04T07:10:13.853Z,12.20
2023-05-04T07:11:13.988Z,12.25
2023-05-04T07:12:13.823Z,12.27
2023-05-04T07:13:13.886Z,12.29
2023-05-04T07:14:13.810Z,12.30
2023-05-04T07:15:13.880Z,12.31
2023-05-04T07:16:13.846Z,12.32
2023-05-04T07:17:13.811Z,12.35
2023-05-04T07:18:13.876Z,12.39
2023-05-04T07:19:13.780Z,12.44
2023-05-04T07:20:13.725Z,12.48
2023-05-04T07:21:26.787Z,12.51
2023-05-04T07:22:14.731Z,12.54
2023-05-04T07:23:13.722Z,12.58
2023-05-04T07:24:13.691Z,12.63
2023-05-04T07:25:13.718Z,12.66
2023-05-04T07:26:13.993Z,12.70
2023-05-04T07:27:13.786Z,12.73
2023-05-04T07:28:13.640Z,12.73
2023-05-04T07:29:13.666Z,12.74
2023-05-04T07:30:13.580Z,12.74
2023-05-04T07:31:14.064Z,12.74
2023-05-04T07:32:15.478Z,12.73
2023-05-04T07:33:13.578Z,12.72
2023-05-04T07:34:14.084Z,12.71
2023-05-04T07:35:13.598Z,12.72
2023-05-04T07:36:13.608Z,12.74
2023-05-04T07:37:13.517Z,12.77
2023-05-04T07:38:13.505Z,12.79
2023-05-04T07:39:13.498Z,12.81
2023-05-04T07:40:13.616Z,12.84
2023-05-04T07:41:13.538Z,12.85
2023-05-04T07:42:13.685Z,12.89
2023-05-04T07:43:13.590Z,12.92
2023-05-04T07:44:13.703Z,12.97
2023-05-04T07:45:13.606Z,13.01
2023-05-04T07:46:13.674Z,13.04
2023-05-04T07:47:13.462Z,13.09
2023-05-04T07:48:13.405Z,13.17
2023-05-04T07:49:13.361Z,13.23
2023-05-04T07:50:13.443Z,13.30
2023-05-04T07:51:13.482Z,13.36
2023-05-04T07:52:13.375Z,13.40
2023-05-04T07:53:13.298Z,13.41
2023-05-04T07:54:13.359Z,13.45
2023-05-04T07:55:13.246Z,13.49
2023-05-04T07:56:13.361Z,13.52
2023-05-04T07:57:13.221Z,13.60
2023-05-04T07:58:13.299Z,13.67
2023-05-04T07:59:13.203Z,13.73
2023-05-04T08:00:13.300Z,13.74
2023-05-04T08:01:13.178Z,13.73
2023-05-04T08:03:22.526Z,13.27
2023-05-04T08:04:22.393Z,13.27
2023-05-04T08:05:22.404Z,13.54
2023-05-04T08:06:22.350Z,13.76
2023-05-04T08:07:22.441Z,13.92
2023-05-04T08:08:22.330Z,14.04
2023-05-04T08:09:22.384Z,14.14
2023-05-04T08:10:22.376Z,14.22
2023-05-04T08:11:22.342Z,14.25
2023-05-04T08:12:22.297Z,14.27
2023-05-04T08:13:22.356Z,14.27
2023-05-04T08:14:22.270Z,14.25
2023-05-04T08:15:22.270Z,14.24
2023-05-04T08:16:22.248Z,14.26
2023-05-04T08:17:22.312Z,14.28
2023-05-04T08:18:22.198Z,14.27
2023-05-04T08:19:22.290Z,14.23
2023-05-04T08:20:23.697Z,14.21
2023-05-04T08:21:22.263Z,14.18
2023-05-04T08:22:22.147Z,14.16
2023-05-04T08:23:22.226Z,14.16
2023-05-04T08:24:22.122Z,14.18
2023-05-04T08:25:22.142Z,14.15
2023-05-04T08:26:22.088Z,14.12
2023-05-04T08:27:26.418Z,14.11
2023-05-04T08:28:22.080Z,14.11
2023-05-04T08:29:22.078Z,14.13
2023-05-04T08:30:22.057Z,14.16
2023-05-04T08:31:22.103Z,14.17
2023-05-04T08:32:22.049Z,14.21
2023-05-04T08:33:22.053Z,14.23
2023-05-04T08:34:21.980Z,14.25
2023-05-04T08:35:22.024Z,14.26
2023-05-04T08:36:21.971Z,14.27
2023-05-04T08:37:22.036Z,14.29
2023-05-04T08:38:21.946Z,14.34
2023-05-04T08:39:22.035Z,14.37
2023-05-04T08:40:21.901Z,14.41
2023-05-04T08:41:21.978Z,14.45
2023-05-04T08:42:21.888Z,14.47
2023-05-04T08:43:21.968Z,14.48
2023-05-04T08:44:21.865Z,14.49
2023-05-04T08:45:21.918Z,14.50
2023-05-04T08:46:21.893Z,14.50
2023-05-04T08:47:22.976Z,14.49
2023-05-04T08:48:21.793Z,14.48
2023-05-04T08:49:21.959Z,14.49
2023-05-04T08:50:21.783Z,14.53
2023-05-04T08:51:21.879Z,14.58
2023-05-04T08:52:21.744Z,14.60
2023-05-04T08:53:21.846Z,14.63
2023-05-04T08:54:21.749Z,14.65
2023-05-04T08:55:21.750Z,14.64
2023-05-04T08:56:21.691Z,14.66
2023-05-04T08:57:21.824Z,14.68
2023-05-04T08:58:21.655Z,14.70
2023-05-04T08:59:21.680Z,14.74
2023-05-04T09:00:21.680Z,14.78
2023-05-04T09:01:21.763Z,14.83
2023-05-04T09:02:21.669Z,14.86
2023-05-04T09:03:21.735Z,14.90
2023-05-04T09:04:21.582Z,14.94
2023-05-04T09:05:21.611Z,14.99
2023-05-04T09:06:21.594Z,15.05
2023-05-04T09:07:21.698Z,15.09
2023-05-04T09:08:21.524Z,15.12
2023-05-04T09:09:21.597Z,15.13
2023-05-04T09:10:21.514Z,15.13
2023-05-04T09:11:21.648Z,15.16
2023-05-04T09:12:21.458Z,15.26
2023-05-04T09:13:21.576Z,15.37
2023-05-04T09:14:21.453Z,15.45
2023-05-04T09:15:21.539Z,15.47
2023-05-04T09:16:21.449Z,15.49
2023-05-04T09:17:21.513Z,15.50
2023-05-04T09:18:21.423Z,15.50
2023-05-04T09:19:21.407Z,15.52
2023-05-04T09:20:21.376Z,15.52
2023-05-04T09:21:21.486Z,15.53
2023-05-04T09:22:21.335Z,15.51
2023-05-04T09:23:21.455Z,15.51
2023-05-04T09:24:21.296Z,15.51
2023-05-04T09:25:21.365Z,15.52
2023-05-04T09:26:21.283Z,15.55
2023-05-04T09:27:21.318Z,15.59
2023-05-04T09:28:21.264Z,15.62
2023-05-04T09:29:21.287Z,15.66
2023-05-04T09:30:21.244Z,15.70
2023-05-04T09:31:21.340Z,15.72
2023-05-04T09:32:21.266Z,15.74
2023-05-04T09:33:21.266Z,15.78
2023-05-04T09:34:21.182Z,15.80
2023-05-04T09:35:31.899Z,15.82
2023-05-04T09:36:22.153Z,15.82
2023-05-04T09:37:21.277Z,15.76
2023-05-04T09:38:21.152Z,15.72
2023-05-04T09:39:21.213Z,15.72
2023-05-04T09:40:21.099Z,15.75
2023-05-04T09:41:21.164Z,15.77
2023-05-04T09:42:21.075Z,15.82
2023-05-04T09:43:21.183Z,15.82
2023-05-04T09:44:21.060Z,15.82
2023-05-04T09:45:21.251Z,15.84
2023-05-04T09:46:21.074Z,15.88
2023-05-04T09:47:21.118Z,15.94
2023-05-04T09:48:21.074Z,16.00
2023-05-04T09:49:21.031Z,16.06
2023-05-04T09:50:21.313Z,16.11
2023-05-04T09:51:21.075Z,16.16
2023-05-04T09:52:20.957Z,16.18
2023-05-04T09:53:21.058Z,16.21
2023-05-04T09:54:20.913Z,16.23
2023-05-04T09:55:20.973Z,16.26
2023-05-04T09:56:20.904Z,16.30
2023-05-04T09:57:21.045Z,16.41
2023-05-04T09:58:20.868Z,16.57
2023-05-04T09:59:20.902Z,16.76
2023-05-04T10:00:20.861Z,16.97
2023-05-04T10:01:20.941Z,17.15
2023-05-04T10:02:23.176Z,17.31
2023-05-04T10:03:20.903Z,17.41
2023-05-04T10:04:20.779Z,17.48
2023-05-04T10:05:20.923Z,17.46
2023-05-04T10:06:20.751Z,17.42
2023-05-04T10:07:41.851Z,17.39
2023-05-04T10:08:20.738Z,17.39
2023-05-04T10:09:20.813Z,17.42
2023-05-04T10:10:20.705Z,17.47
2023-05-04T10:11:20.795Z,17.51
2023-05-04T10:12:20.666Z,17.50
2023-05-04T10:13:20.677Z,17.48
2023-05-04T10:14:20.637Z,17.45
2023-05-04T10:15:20.735Z,17.43
2023-05-04T10:16:20.661Z,17.42
2023-05-04T10:17:20.705Z,17.42
2023-05-04T10:18:20.583Z,17.39
2023-05-04T10:19:20.646Z,17.35
2023-05-04T10:20:20.560Z,17.28
2023-05-04T10:21:20.686Z,17.21
2023-05-04T10:22:20.545Z,17.13
2023-05-04T10:23:22.523Z,17.08
2023-05-04T10:24:20.506Z,17.05
2023-05-04T10:25:20.575Z,17.05
2023-05-04T10:26:20.534Z,17.06
2023-05-04T10:27:20.521Z,17.10
2023-05-04T10:28:20.448Z,17.12
2023-05-04T10:29:22.568Z,17.16
2023-05-04T10:30:20.422Z,17.21
2023-05-04T10:31:20.513Z,17.27
2023-05-04T10:32:20.392Z,17.33
2023-05-04T10:33:20.477Z,17.41
2023-05-04T10:34:20.412Z,17.49
2023-05-04T10:35:20.457Z,17.50
2023-05-04T10:36:20.335Z,17.48
2023-05-04T10:37:20.476Z,17.47
2023-05-04T10:38:20.370Z,17.45
2023-05-04T10:39:20.447Z,17.45
2023-05-04T10:40:20.343Z,17.45
2023-05-04T10:41:20.365Z,17.47
2023-05-04T10:42:20.268Z,17.50
2023-05-04T10:43:20.272Z,17.54
2023-05-04T10:44:20.247Z,17.58
2023-05-04T10:45:20.346Z,17.64
2023-05-04T10:46:20.210Z,17.70
2023-05-04T10:47:20.318Z,17.76
2023-05-04T10:48:20.200Z,17.80
2023-05-04T10:49:20.234Z,17.80
2023-05-04T10:50:20.308Z,17.81
2023-05-04T10:51:20.198Z,17.83
2023-05-04T10:52:20.131Z,17.85
2023-05-04T10:53:20.160Z,17.86
2023-05-04T10:54:20.115Z,17.89
2023-05-04T10:55:20.183Z,17.92
2023-05-04T10:56:20.069Z,17.94
2023-05-04T10:57:20.148Z,17.93
2023-05-04T10:58:20.079Z,17.92
2023-05-04T10:59:20.095Z,17.93
2023-05-04T11:00:20.046Z,17.96
2023-05-04T11:01:20.149Z,18.01
2023-05-04T11:02:20.094Z,18.06
2023-05-04T11:03:20.141Z,18.11
2023-05-04T11:04:19.974Z,18.15
2023-05-04T11:05:20.477Z,18.21
2023-05-04T11:06:23.466Z,18.25
2023-05-04T11:07:19.945Z,18.29
2023-05-04T11:08:19.954Z,18.31
2023-05-04T11:09:19.918Z,18.32
2023-05-04T11:10:20.231Z,18.37
2023-05-04T11:11:19.888Z,18.42
2023-05-04T11:12:19.897Z,18.47
2023-05-04T11:13:19.895Z,18.55
2023-05-04T11:14:19.897Z,18.62
2023-05-04T11:15:19.919Z,18.70
2023-05-04T11:16:20.847Z,18.76
2023-05-04T11:17:28.292Z,18.81
2023-05-04T11:18:20.864Z,18.86
2023-05-04T11:19:19.861Z,18.92
2023-05-04T11:20:19.762Z,18.99
2023-05-04T11:21:20.186Z,19.07
2023-05-04T11:22:19.731Z,19.11
2023-05-04T11:23:19.774Z,19.15
2023-05-04T11:24:19.693Z,19.18
2023-05-04T11:25:19.807Z,19.21
2023-05-04T11:26:19.685Z,19.28
2023-05-04T11:27:19.739Z,19.31
2023-05-04T11:28:19.649Z,19.35
2023-05-04T11:29:19.701Z,19.39
2023-05-04T11:30:19.615Z,19.42
2023-05-04T11:31:19.754Z,19.44
2023-05-04T11:32:19.593Z,19.46
2023-05-04T11:33:19.675Z,19.50
2023-05-04T11:34:19.564Z,19.52
2023-05-04T11:35:19.642Z,19.56
2023-05-04T11:36:19.600Z,19.59
2023-05-04T11:37:19.543Z,19.62
2023-05-04T11:38:19.524Z,19.64
2023-05-04T11:39:19.607Z,19.66
2023-05-04T11:40:19.492Z,19.70
2023-05-04T11:41:19.647Z,19.75
2023-05-04T11:42:19.456Z,19.78
2023-05-04T11:43:19.497Z,19.80
2023-05-04T11:44:19.434Z,19.81
2023-05-04T11:45:19.570Z,19.83
2023-05-04T11:46:19.412Z,19.85
2023-05-04T11:47:40.481Z,19.87
2023-05-04T11:48:19.428Z,19.90
2023-05-04T11:49:19.424Z,19.95
2023-05-04T11:50:19.354Z,20.03
2023-05-04T11:51:19.415Z,20.11
2023-05-04T11:52:19.328Z,20.18
2023-05-04T11:53:19.393Z,20.23
2023-05-04T11:54:19.290Z,20.26
2023-05-04T11:55:19.370Z,20.27
2023-05-04T11:56:19.272Z,20.26
2023-05-04T11:57:19.350Z,20.26
2023-05-04T11:58:19.273Z,20.27
2023-05-04T11:59:19.322Z,20.30
2023-05-04T12:00:19.215Z,20.34
2023-05-04T12:01:19.327Z,20.39
2023-05-04T12:02:19.202Z,20.43
2023-05-04T12:03:19.411Z,20.43
2023-05-04T12:04:19.217Z,20.45
2023-05-04T12:05:19.265Z,20.49
2023-05-04T12:06:19.145Z,20.53
2023-05-04T12:07:19.219Z,20.57
2023-05-04T12:08:19.116Z,20.57
2023-05-04T12:09:20.139Z,20.56
2023-05-04T12:10:19.083Z,20.56
2023-05-04T12:11:19.190Z,20.58
2023-05-04T12:12:19.083Z,20.62
2023-05-04T12:13:19.137Z,20.64
2023-05-04T12:14:19.043Z,20.68
2023-05-04T12:15:20.101Z,20.70
2023-05-04T12:16:19.026Z,20.70
2023-05-04T12:17:19.018Z,20.72
2023-05-04T12:18:18.971Z,20.74
2023-05-04T12:19:19.026Z,20.77
2023-05-04T12:20:19.019Z,20.78
2023-05-04T12:21:19.008Z,20.80
2023-05-04T12:22:18.923Z,20.80
2023-05-04T12:23:21.396Z,20.80
2023-05-04T12:24:18.888Z,20.85
2023-05-04T12:25:18.972Z,20.93
2023-05-04T12:26:19.773Z,21.04
2023-05-04T12:27:18.946Z,21.09
2023-05-04T12:28:18.870Z,21.12
2023-05-04T12:29:18.966Z,21.18
2023-05-04T12:30:18.924Z,21.25
2023-05-04T12:31:18.834Z,21.29
2023-05-04T12:32:18.779Z,21.33
2023-05-04T12:33:18.894Z,21.36
2023-05-04T12:34:18.760Z,21.39
2023-05-04T12:35:18.845Z,21.45
2023-05-04T12:36:18.732Z,21.51
2023-05-04T12:37:18.903Z,21.55
2023-05-04T12:38:18.697Z,21.58
2023-05-04T12:39:18.826Z,21.64
2023-05-04T12:40:28.302Z,21.66
2023-05-04T12:41:19.673Z,21.65
2023-05-04T12:42:18.750Z,21.68
2023-05-04T12:43:20.825Z,21.75
2023-05-04T12:44:18.712Z,21.85
2023-05-04T12:45:18.739Z,21.90
2023-05-04T12:46:18.661Z,21.88
2023-05-04T12:47:18.590Z,21.85
2023-05-04T12:48:18.646Z,21.78
2023-05-04T12:49:18.566Z,21.69
2023-05-04T12:50:18.652Z,21.56
2023-05-04T12:51:18.559Z,21.45
2023-05-04T12:52:18.568Z,21.35
2023-05-04T12:53:18.546Z,21.27
2023-05-04T12:54:18.589Z,21.17
2023-05-04T12:55:18.472Z,21.07
2023-05-04T12:56:18.502Z,21.06
2023-05-04T12:57:18.470Z,21.05
2023-05-04T12:58:20.595Z,21.05
2023-05-04T12:59:18.438Z,21.03
2023-05-04T13:00:18.516Z,21.02
2023-05-04T13:01:18.451Z,21.03
2023-05-04T13:02:18.451Z,21.12
2023-05-04T13:03:18.710Z,21.26
2023-05-04T13:04:18.457Z,21.44